createdAt,value
2019-02-10T00:02:03.145Z,28.52
2019-02-10T00:04:33.456Z,25.45
2019-02-10T00:07:03.741Z,25.60
2019-02-10T00:09:34.018Z,24.63
2019-02-10T00:12:05.230Z,25.02
2019-02-10T00:14:35.493Z,25.90
2019-02-10T00:17:05.844Z,26.62
2019-02-10T00:19:37.880Z,30.32
2019-02-10T00:22:10.226Z,30.92
2019-02-10T00:24:41.903Z,31.62
2019-02-10T00:27:12.592Z,29.42
2019-02-10T00:29:42.929Z,28.42
2019-02-10T00:32:13.243Z,28.50
2019-02-10T00:34:43.455Z,27.80
2019-02-10T00:37:14.791Z,26.23
2019-02-10T00:39:44.916Z,31.50
2019-02-10T00:42:15.362Z,26.95
2019-02-10T00:44:45.512Z,29.82
2019-02-10T00:47:15.674Z,28.65
2019-02-10T00:49:46.105Z,30.15
2019-02-10T00:52:16.482Z,29.72
2019-02-10T00:54:48.467Z,32.03
2019-02-10T00:57:18.920Z,29.57
2019-02-10T00:59:49.154Z,33.00
2019-02-10T01:02:19.421Z,29.77
2019-02-10T01:04:50.188Z,30.35
2019-02-10T01:07:20.410Z,29.72
2019-02-10T01:09:51.548Z,28.47
2019-02-10T01:12:22.065Z,31.10
2019-02-10T01:14:52.299Z,32.33
2019-02-10T01:17:22.582Z,30.12
2019-02-10T01:19:52.840Z,33.65
2019-02-10T01:22:23.892Z,32.48
2019-02-10T01:24:54.147Z,33.50
2019-02-10T01:27:24.426Z,39.15
2019-02-10T01:29:54.891Z,37.53
2019-02-10T01:32:25.059Z,31.40
2019-02-10T01:34:55.367Z,34.40
2019-02-10T01:37:25.618Z,38.08
2019-02-10T01:39:55.822Z,36.65
2019-02-10T01:42:27.786Z,39.13
2019-02-10T01:44:58.082Z,37.00
2019-02-10T01:47:28.396Z,43.25
2019-02-10T01:49:58.707Z,41.98
2019-02-10T01:52:28.960Z,43.52
2019-02-10T01:54:59.354Z,42.15
2019-02-10T01:57:29.636Z,44.85
2019-02-10T01:59:59.931Z,42.83
2019-02-10T02:02:30.208Z,42.15
2019-02-10T02:05:00.696Z,38.23
2019-02-10T02:07:31.144Z,42.23
2019-02-10T02:10:01.400Z,40.92
2019-02-10T02:12:32.961Z,51.20
2019-02-10T02:15:03.231Z,40.90
2019-02-10T02:17:33.601Z,42.45
2019-02-10T02:20:04.635Z,40.43
2019-02-10T02:22:34.900Z,44.65
2019-02-10T02:25:08.235Z,41.83
2019-02-10T02:27:38.566Z,42.78
2019-02-10T02:30:14.221Z,39.13
2019-02-10T02:32:44.591Z,40.20
2019-02-10T02:35:15.042Z,44.18
2019-02-10T02:37:45.331Z,39.33
2019-02-10T02:40:16.650Z,41.77
2019-02-10T02:42:46.921Z,40.17
2019-02-10T02:45:17.255Z,46.00
2019-02-10T02:47:47.486Z,44.00
2019-02-10T02:50:17.638Z,43.63
2019-02-10T02:52:47.863Z,42.60
2019-02-10T02:55:18.141Z,40.38
2019-02-10T02:57:48.385Z,42.25
2019-02-10T03:00:18.861Z,40.08
2019-02-10T03:02:49.411Z,39.15
2019-02-10T03:05:19.755Z,40.75
2019-02-10T03:07:49.980Z,40.35
2019-02-10T03:10:20.282Z,40.92
2019-02-10T03:12:50.510Z,41.85
2019-02-10T03:15:20.754Z,41.68
2019-02-10T03:17:51.033Z,37.13
2019-02-10T03:20:21.242Z,42.38
2019-02-10T03:22:52.428Z,40.95
2019-02-10T03:25:22.972Z,41.92
2019-02-10T03:27:53.287Z,41.37
2019-02-10T03:30:23.641Z,40.73
2019-02-10T03:32:54.045Z,41.18
2019-02-10T03:35:24.227Z,44.15
2019-02-10T03:37:54.435Z,41.65
2019-02-10T03:40:24.970Z,41.42
2019-02-10T03:42:55.297Z,45.80
2019-02-10T03:45:25.528Z,44.25
2019-02-10T03:47:56.000Z,46.13
2019-02-10T03:50:26.297Z,39.90
2019-02-10T03:52:56.601Z,48.23
2019-02-10T03:55:26.966Z,46.13
2019-02-10T03:57:57.173Z,41.18
2019-02-10T04:00:27.546Z,41.37
2019-02-10T04:02:57.836Z,45.90
2019-02-10T04:05:28.216Z,41.68
2019-02-10T04:07:59.442Z,46.98
2019-02-10T04:10:29.893Z,37.15
2019-02-10T04:13:00.157Z,46.08
2019-02-10T04:15:30.728Z,43.83
2019-02-10T04:18:00.968Z,44.20
2019-02-10T04:20:31.245Z,48.13
2019-02-10T04:23:01.458Z,46.42
2019-02-10T04:25:31.713Z,51.40
2019-02-10T04:28:01.927Z,47.48
2019-02-10T04:30:32.311Z,47.35
2019-02-10T04:33:02.610Z,47.30
2019-02-10T04:35:33.170Z,50.50
2019-02-10T04:38:06.057Z,48.98
2019-02-10T04:40:37.827Z,49.05
2019-02-10T04:43:08.050Z,57.80
2019-02-10T04:45:38.379Z,45.92
2019-02-10T04:48:08.752Z,46.35
2019-02-10T04:50:39.067Z,53.85
2019-02-10T04:53:09.318Z,47.58
2019-02-10T04:55:39.598Z,50.75
2019-02-10T04:58:09.921Z,47.40
2019-02-10T05:00:40.289Z,48.40
2019-02-10T05:03:10.379Z,51.80
2019-02-10T05:05:40.660Z,51.00
2019-02-10T05:08:10.987Z,46.98
2019-02-10T05:10:42.669Z,45.50
2019-02-10T05:13:13.163Z,43.20
2019-02-10T05:15:43.434Z,46.65
2019-02-10T05:18:13.652Z,46.95
2019-02-10T05:20:43.879Z,44.53
2019-02-10T05:23:15.096Z,46.60
2019-02-10T05:25:45.348Z,42.38
2019-02-10T05:28:15.769Z,46.50
2019-02-10T05:30:46.109Z,46.95
2019-02-10T05:33:16.445Z,46.53
2019-02-10T05:35:46.643Z,52.27
2019-02-10T05:38:16.963Z,50.43
2019-02-10T05:40:47.153Z,47.25
2019-02-10T05:43:18.575Z,53.55
2019-02-10T05:45:48.880Z,47.70
2019-02-10T05:48:19.137Z,44.48
2019-02-10T05:50:49.366Z,50.45
2019-02-10T05:53:19.564Z,49.25
2019-02-10T05:55:50.130Z,55.00
2019-02-10T05:58:20.798Z,50.28
2019-02-10T06:00:51.272Z,52.65
2019-02-10T06:03:21.617Z,50.90
2019-02-10T06:05:51.811Z,49.98
2019-02-10T06:08:22.060Z,52.00
2019-02-10T06:10:52.259Z,51.63
2019-02-10T06:13:22.521Z,50.48
2019-02-10T06:15:52.673Z,50.48
2019-02-10T06:18:22.982Z,52.05
2019-02-10T06:20:53.333Z,48.92
2019-02-10T06:23:24.585Z,51.68
2019-02-10T06:25:54.912Z,49.48
2019-02-10T06:28:25.206Z,49.63
2019-02-10T06:30:55.419Z,50.90
2019-02-10T06:33:25.637Z,48.78
2019-02-10T06:35:55.902Z,49.98
2019-02-10T06:38:26.281Z,52.25
2019-02-10T06:40:56.476Z,51.73
2019-02-10T06:43:26.737Z,49.75
2019-02-10T06:45:56.945Z,51.85
2019-02-10T06:48:27.187Z,55.90
2019-02-10T06:50:57.471Z,55.98
2019-02-10T06:53:27.858Z,57.48
2019-02-10T06:55:58.193Z,49.48
2019-02-10T06:58:28.461Z,54.95
2019-02-10T07:01:03.437Z,58.52
2019-02-10T07:03:49.799Z,56.68
2019-02-10T07:06:25.179Z,55.15
2019-02-10T07:08:56.966Z,56.85
2019-02-10T07:11:27.240Z,51.20
2019-02-10T07:13:58.690Z,56.23
2019-02-10T07:16:31.479Z,58.73
2019-02-10T07:19:38.211Z,56.88
2019-02-10T07:22:34.477Z,60.92
2019-02-10T07:25:14.044Z,66.30
2019-02-10T07:27:46.121Z,66.80
2019-02-10T07:30:19.375Z,52.25
2019-02-10T07:32:58.830Z,45.30
2019-02-10T07:35:43.703Z,73.12
2019-02-10T07:38:38.477Z,63.48
2019-02-10T07:41:09.347Z,64.40
2019-02-10T07:44:02.061Z,60.90
2019-02-10T07:46:56.669Z,62.65
2019-02-10T07:49:46.829Z,62.70
2019-02-10T07:52:44.276Z,55.63
2019-02-10T07:55:34.094Z,52.75
2019-02-10T07:58:19.688Z,54.00
2019-02-10T08:01:01.761Z,51.80
2019-02-10T08:03:52.767Z,54.25
2019-02-10T08:06:28.601Z,51.77
2019-02-10T08:09:05.170Z,62.80
2019-02-10T08:11:47.271Z,50.63
2019-02-10T08:14:26.363Z,53.48
2019-02-10T08:17:02.312Z,62.73
2019-02-10T08:19:56.594Z,56.35
2019-02-10T08:22:35.795Z,53.78
2019-02-10T08:25:24.008Z,51.65
2019-02-10T08:28:09.146Z,49.08
2019-02-10T08:30:42.368Z,44.15
2019-02-10T08:33:18.243Z,49.65
2019-02-10T08:36:12.500Z,49.25
2019-02-10T08:39:05.473Z,45.20
2019-02-10T08:41:47.543Z,50.00
2019-02-10T08:44:28.633Z,47.67
2019-02-10T08:47:23.952Z,52.33
2019-02-10T08:50:13.762Z,46.02
2019-02-10T08:52:52.579Z,45.05
2019-02-10T08:55:22.786Z,46.68
2019-02-10T08:57:53.241Z,39.83
2019-02-10T09:00:23.540Z,39.88
2019-02-10T09:02:53.832Z,38.90
2019-02-10T09:05:24.049Z,39.78
2019-02-10T09:07:55.457Z,41.85
2019-02-10T09:10:25.900Z,41.00
2019-02-10T09:12:56.132Z,36.13
2019-02-10T09:15:26.648Z,38.92
2019-02-10T09:17:56.905Z,38.92
2019-02-10T09:20:27.209Z,36.60
2019-02-10T09:22:57.669Z,38.58
2019-02-10T09:25:28.238Z,36.63
2019-02-10T09:27:58.538Z,31.17
2019-02-10T09:30:28.901Z,31.20
2019-02-10T09:32:59.116Z,32.15
2019-02-10T09:35:29.491Z,34.03
2019-02-10T09:37:59.981Z,28.00
2019-02-10T09:40:32.446Z,20.80
2019-02-10T09:43:02.788Z,21.57
2019-02-10T09:45:33.113Z,20.25
2019-02-10T09:48:03.465Z,24.20
2019-02-10T09:50:34.235Z,23.27
2019-02-10T09:53:04.568Z,17.17
2019-02-10T09:55:34.706Z,17.67
2019-02-10T09:58:04.951Z,17.95
2019-02-10T10:00:35.341Z,16.00
2019-02-10T10:03:05.754Z,16.52
2019-02-10T10:05:35.968Z,15.05
2019-02-10T10:08:06.247Z,14.98
2019-02-10T10:10:36.634Z,19.25
2019-02-10T10:13:06.954Z,16.70
2019-02-10T10:15:37.281Z,17.92
2019-02-10T10:18:07.608Z,18.07
2019-02-10T10:20:38.077Z,17.25
2019-02-10T10:23:08.699Z,16.73
2019-02-10T10:25:40.350Z,19.20
2019-02-10T10:28:10.812Z,16.85
2019-02-10T10:30:41.107Z,14.75
2019-02-10T10:33:11.425Z,13.95
2019-02-10T10:35:41.655Z,14.78
2019-02-10T10:38:12.085Z,15.48
2019-02-10T10:40:42.555Z,15.50
2019-02-10T10:43:12.983Z,12.03
2019-02-10T10:45:43.603Z,16.87
2019-02-10T10:48:14.012Z,14.28
2019-02-10T10:50:44.694Z,13.03
2019-02-10T10:53:15.219Z,16.90
2019-02-10T10:55:45.501Z,12.70
2019-02-10T10:58:15.940Z,15.93
2019-02-10T11:00:46.215Z,12.30
2019-02-10T11:03:17.331Z,12.78
2019-02-10T11:05:47.603Z,11.85
2019-02-10T11:08:18.028Z,12.07
2019-02-10T11:10:48.357Z,11.55
2019-02-10T11:13:18.906Z,15.28
2019-02-10T11:15:49.246Z,13.78
2019-02-10T11:18:20.750Z,12.20
2019-02-10T11:20:51.033Z,11.97
2019-02-10T11:23:21.580Z,8.53
2019-02-10T11:25:53.706Z,12.93
2019-02-10T11:28:24.043Z,10.60
2019-02-10T11:30:54.547Z,13.35
2019-02-10T11:33:24.849Z,10.88
2019-02-10T11:35:55.364Z,10.10
2019-02-10T11:38:25.618Z,9.60
2019-02-10T11:40:55.947Z,9.15
2019-02-10T11:43:26.231Z,9.53
2019-02-10T11:45:56.622Z,11.48
2019-02-10T11:48:26.870Z,10.82
2019-02-10T11:50:57.110Z,9.40
2019-02-10T11:53:27.359Z,12.10
2019-02-10T11:55:57.584Z,11.43
2019-02-10T11:58:27.775Z,10.35
2019-02-10T12:00:58.240Z,18.37
2019-02-10T12:03:28.456Z,13.68
2019-02-10T12:05:59.590Z,13.45
2019-02-10T12:08:35.718Z,17.35
2019-02-10T12:11:01.672Z,15.00
2019-02-10T12:13:31.919Z,14.07
2019-02-10T12:16:02.116Z,12.98
2019-02-10T12:18:32.336Z,15.13
2019-02-10T12:21:02.611Z,12.80
2019-02-10T12:23:32.794Z,15.93
2019-02-10T12:26:02.901Z,14.98
2019-02-10T12:28:34.211Z,12.10
2019-02-10T12:31:04.468Z,11.33
2019-02-10T12:33:34.761Z,12.95
2019-02-10T12:36:04.981Z,11.80
2019-02-10T12:38:35.118Z,12.73
2019-02-10T12:41:05.702Z,11.70
2019-02-10T12:43:36.000Z,11.43
2019-02-10T12:46:06.256Z,11.22
2019-02-10T12:48:36.491Z,11.28
2019-02-10T12:51:06.893Z,13.88
2019-02-10T12:53:36.979Z,14.43
2019-02-10T12:56:07.214Z,11.05
2019-02-10T12:58:37.417Z,11.22
2019-02-10T13:01:07.705Z,12.82
2019-02-10T13:03:37.942Z,15.48
2019-02-10T13:06:08.143Z,11.50
2019-02-10T13:08:38.356Z,10.35
2019-02-10T13:11:08.570Z,13.53
2019-02-10T13:13:39.906Z,11.35
2019-02-10T13:16:10.109Z,14.50
2019-02-10T13:18:40.523Z,11.35
2019-02-10T13:21:10.738Z,11.28
2019-02-10T13:23:40.971Z,11.73
2019-02-10T13:26:11.319Z,14.30
2019-02-10T13:28:42.508Z,13.95
2019-02-10T13:31:12.698Z,11.12
2019-02-10T13:33:42.943Z,10.40
2019-02-10T13:36:13.236Z,13.60
2019-02-10T13:38:43.411Z,11.68
2019-02-10T13:41:13.590Z,12.00
2019-02-10T13:43:43.830Z,12.20
2019-02-10T13:46:13.963Z,10.15
2019-02-10T13:48:44.184Z,11.88
2019-02-10T13:51:15.573Z,11.38
2019-02-10T13:53:45.927Z,16.35
2019-02-10T13:56:16.074Z,11.45
2019-02-10T13:58:46.279Z,12.43
2019-02-10T14:01:16.487Z,11.73
2019-02-10T14:03:46.635Z,13.43
2019-02-10T14:06:16.772Z,11.20
2019-02-10T14:08:46.838Z,12.33
2019-02-10T14:11:18.241Z,17.17
2019-02-10T14:13:48.567Z,14.33
2019-02-10T14:16:18.819Z,14.05
2019-02-10T14:18:49.021Z,13.48
2019-02-10T14:21:19.298Z,13.55
2019-02-10T14:23:49.658Z,13.38
2019-02-10T14:26:19.867Z,14.47
2019-02-10T14:28:51.002Z,13.32
2019-02-10T14:31:21.211Z,12.47
2019-02-10T14:33:51.369Z,19.77
2019-02-10T14:36:21.572Z,14.43
2019-02-10T14:38:51.721Z,11.78
2019-02-10T14:41:21.926Z,15.48
2019-02-10T14:43:52.136Z,15.30
2019-02-10T14:46:22.448Z,15.03
2019-02-10T14:48:52.584Z,15.95
2019-02-10T14:51:23.242Z,17.52
2019-02-10T14:53:53.344Z,15.32
2019-02-10T14:56:23.665Z,16.95
2019-02-10T14:58:53.887Z,21.15
2019-02-10T15:01:24.230Z,16.65
2019-02-10T15:03:54.496Z,18.50
2019-02-10T15:06:24.767Z,17.48
2019-02-10T15:08:55.067Z,16.48
2019-02-10T15:11:25.269Z,18.48
2019-02-10T15:13:55.746Z,19.17
2019-02-10T15:16:26.121Z,19.05
2019-02-10T15:18:56.399Z,18.57
2019-02-10T15:21:26.963Z,19.48
2019-02-10T15:23:57.481Z,17.85
2019-02-10T15:26:27.713Z,19.67
2019-02-10T15:28:59.058Z,20.10
2019-02-10T15:31:29.395Z,22.80
2019-02-10T15:33:59.759Z,18.25
2019-02-10T15:36:30.896Z,22.05
2019-02-10T15:39:01.185Z,22.55
2019-02-10T15:41:32.865Z,19.07
2019-02-10T15:44:02.997Z,23.98
2019-02-10T15:46:33.303Z,22.90
2019-02-10T15:49:03.591Z,20.90
2019-02-10T15:51:37.176Z,22.55
2019-02-10T15:54:05.842Z,21.02
2019-02-10T15:56:36.064Z,25.12
2019-02-10T15:59:06.368Z,20.97
2019-02-10T16:01:37.002Z,22.15
2019-02-10T16:04:07.312Z,20.48
2019-02-10T16:06:37.503Z,23.38
2019-02-10T16:09:07.854Z,22.85
2019-02-10T16:11:38.175Z,22.07
2019-02-10T16:14:08.470Z,22.10
2019-02-10T16:16:39.003Z,24.10
2019-02-10T16:19:09.145Z,22.98
2019-02-10T16:21:39.383Z,20.00
2019-02-10T16:24:09.746Z,24.02
2019-02-10T16:26:39.943Z,25.50
2019-02-10T16:29:11.896Z,26.62
2019-02-10T16:31:42.329Z,24.45
2019-02-10T16:34:12.886Z,27.05
2019-02-10T16:36:43.052Z,23.57
2019-02-10T16:39:13.293Z,29.15
2019-02-10T16:41:43.579Z,24.43
2019-02-10T16:44:13.842Z,25.92
2019-02-10T16:46:45.134Z,24.77
2019-02-10T16:49:15.325Z,24.45
2019-02-10T16:51:45.620Z,23.55
2019-02-10T16:54:15.770Z,22.82
2019-02-10T16:56:45.981Z,24.50
2019-02-10T16:59:16.295Z,23.92
2019-02-10T17:01:46.479Z,25.60
2019-02-10T17:04:16.631Z,23.42
2019-02-10T17:06:46.993Z,28.42
2019-02-10T17:09:17.433Z,24.87
2019-02-10T17:11:48.093Z,25.55
2019-02-10T17:14:19.949Z,29.60
2019-02-10T17:16:50.255Z,26.42
2019-02-10T17:19:20.459Z,27.07
2019-02-10T17:21:50.672Z,26.48
2019-02-10T17:24:20.879Z,24.15
2019-02-10T17:26:51.070Z,24.55
2019-02-10T17:29:22.384Z,26.10
2019-02-10T17:31:52.641Z,30.68
2019-02-10T17:34:22.861Z,31.12
2019-02-10T17:36:53.105Z,31.37
2019-02-10T17:39:23.656Z,31.70
2019-02-10T17:41:53.795Z,41.42
2019-02-10T17:44:23.875Z,31.97
2019-02-10T17:46:54.099Z,38.28
2019-02-10T17:49:24.446Z,33.55
2019-02-10T17:51:54.771Z,36.28
2019-02-10T17:54:25.045Z,36.50
2019-02-10T17:56:55.413Z,37.20
2019-02-10T17:59:25.767Z,34.33
2019-02-10T18:01:56.101Z,39.50
2019-02-10T18:04:27.321Z,36.75
2019-02-10T18:06:58.828Z,37.15
2019-02-10T18:09:29.159Z,39.38
2019-02-10T18:11:59.470Z,42.00
2019-02-10T18:14:34.138Z,43.73
2019-02-10T18:17:21.192Z,47.00
2019-02-10T18:20:09.574Z,46.98
2019-02-10T18:22:47.430Z,42.03
2019-02-10T18:25:28.043Z,41.70
2019-02-10T18:28:05.672Z,49.90
2019-02-10T18:30:49.817Z,46.40
2019-02-10T18:33:27.622Z,46.13
2019-02-10T18:36:05.215Z,42.03
2019-02-10T18:38:49.174Z,43.95
2019-02-10T18:41:30.150Z,52.70
2019-02-10T18:44:05.106Z,48.17
2019-02-10T18:46:36.966Z,46.15
2019-02-10T18:49:18.298Z,49.18
2019-02-10T18:51:59.341Z,44.63
2019-02-10T18:54:49.631Z,48.42
2019-02-10T18:57:21.491Z,44.18
2019-02-10T18:59:53.391Z,46.30
2019-02-10T19:02:28.175Z,44.20
2019-02-10T19:05:02.844Z,47.40
2019-02-10T19:07:52.874Z,46.85
2019-02-10T19:10:39.898Z,44.67
2019-02-10T19:13:11.842Z,42.78
2019-02-10T19:15:46.740Z,44.45
2019-02-10T19:18:21.813Z,42.70
2019-02-10T19:20:53.798Z,41.98
2019-02-10T19:23:41.785Z,46.00
2019-02-10T19:26:16.484Z,45.08
2019-02-10T19:28:57.323Z,45.12
2019-02-10T19:31:32.927Z,41.48
2019-02-10T19:34:07.585Z,45.43
2019-02-10T19:36:58.015Z,41.08
2019-02-10T19:39:29.965Z,43.15
2019-02-10T19:42:18.229Z,46.28
2019-02-10T19:44:50.190Z,47.53
2019-02-10T19:47:38.233Z,44.70
2019-02-10T19:50:13.430Z,44.60
2019-02-10T19:53:01.356Z,44.67
2019-02-10T19:55:33.315Z,43.00
2019-02-10T19:58:10.990Z,40.00
2019-02-10T20:00:54.996Z,36.15
2019-02-10T20:03:39.024Z,40.20
2019-02-10T20:06:13.973Z,40.43
2019-02-10T20:08:45.944Z,43.35
2019-02-10T20:11:17.890Z,50.23
2019-02-10T20:13:49.735Z,41.70
2019-02-10T20:16:24.356Z,35.75
2019-02-10T20:19:11.630Z,33.88
2019-02-10T20:21:52.251Z,30.62
2019-02-10T20:24:42.423Z,30.17
2019-02-10T20:27:26.727Z,33.58
2019-02-10T20:30:04.898Z,29.67
2019-02-10T20:32:45.817Z,28.90
2019-02-10T20:35:33.853Z,26.82
2019-02-10T20:38:08.431Z,29.85
2019-02-10T20:40:56.659Z,27.52
2019-02-10T20:43:28.662Z,26.45
2019-02-10T20:46:06.622Z,27.13
2019-02-10T20:48:41.529Z,26.97
2019-02-10T20:51:13.478Z,24.47
2019-02-10T20:53:45.824Z,27.30
2019-02-10T20:56:18.087Z,23.70
2019-02-10T20:58:50.203Z,26.50
2019-02-10T21:01:25.220Z,26.87
2019-02-10T21:04:03.219Z,24.52
2019-02-10T21:06:47.496Z,26.55
2019-02-10T21:09:19.370Z,26.93
2019-02-10T21:11:51.394Z,26.55
2019-02-10T21:14:39.829Z,25.37
2019-02-10T21:17:23.766Z,23.98
2019-02-10T21:20:12.336Z,26.75
2019-02-10T21:22:53.370Z,24.52
2019-02-10T21:25:28.322Z,33.67
2019-02-10T21:28:12.619Z,34.85
2019-02-10T21:31:01.095Z,41.50
2019-02-10T21:33:49.375Z,45.20
2019-02-10T21:36:24.365Z,45.48
2019-02-10T21:39:12.907Z,39.30
2019-02-10T21:42:00.003Z,44.85
2019-02-10T21:44:39.067Z,43.75
2019-02-10T21:47:10.875Z,55.60
2019-02-10T21:49:41.139Z,50.50
2019-02-10T21:52:11.423Z,45.78
2019-02-10T21:54:41.579Z,49.73
2019-02-10T21:57:12.706Z,50.70
2019-02-10T21:59:44.742Z,53.83
2019-02-10T22:02:14.944Z,50.30
2019-02-10T22:04:45.259Z,50.50
2019-02-10T22:07:15.746Z,52.27
2019-02-10T22:09:46.226Z,47.43
2019-02-10T22:12:16.523Z,50.38
2019-02-10T22:14:46.725Z,50.90
2019-02-10T22:17:16.899Z,50.65
2019-02-10T22:19:47.207Z,50.60
2019-02-10T22:22:17.470Z,51.80
2019-02-10T22:24:47.669Z,49.88
2019-02-10T22:27:17.959Z,50.10
2019-02-10T22:29:48.422Z,52.60
2019-02-10T22:32:19.682Z,51.28
2019-02-10T22:34:50.201Z,58.70
2019-02-10T22:37:20.408Z,60.08
2019-02-10T22:39:50.853Z,58.60
2019-02-10T22:42:21.158Z,61.42
2019-02-10T22:44:51.481Z,64.90
2019-02-10T22:47:22.763Z,60.33
2019-02-10T22:49:53.075Z,59.70
2019-02-10T22:52:23.474Z,52.90
2019-02-10T22:54:53.798Z,56.08
2019-02-10T22:57:24.123Z,56.18
2019-02-10T22:59:54.691Z,41.13
2019-02-10T23:02:25.058Z,44.13
2019-02-10T23:04:55.471Z,43.00
2019-02-10T23:07:25.683Z,35.33
2019-02-10T23:09:56.353Z,33.55
2019-02-10T23:12:26.658Z,30.50
2019-02-10T23:14:57.161Z,27.07
2019-02-10T23:17:27.351Z,29.10
2019-02-10T23:19:57.767Z,30.43
2019-02-10T23:22:28.083Z,28.77
2019-02-10T23:24:58.605Z,29.82
2019-02-10T23:27:28.935Z,28.67
2019-02-10T23:29:59.731Z,31.55
2019-02-10T23:32:29.932Z,26.93
2019-02-10T23:35:00.365Z,30.62
2019-02-10T23:37:30.638Z,27.90
2019-02-10T23:40:03.017Z,28.47
2019-02-10T23:42:32.854Z,20.02
2019-02-10T23:45:03.102Z,25.15
2019-02-10T23:47:33.255Z,30.15
2019-02-10T23:50:03.477Z,30.05
2019-02-10T23:52:33.702Z,29.02
2019-02-10T23:55:04.672Z,29.07
2019-02-10T23:57:35.246Z,30.55
